Time;durP1;ratioP1;P1;durP2;ratioP2;P2;SDS_P1;SDS_P2;PMS_P1;PMS_P2;Temp;Humidity;BMP_temperature;BMP_pressure;BME280_temperature;BME280_humidity;BME280_pressure;Samples;Min_cycle;Max_cycle;Signal;HPM_P1;HPM_P2
2023/06/06 00:00:06;;;;;;;;;;;;;;;21.50;75.90;101957.38;5054985;28;19978;-55
2023/06/06 00:02:40;;;;;;;;;;;;;;;21.51;77.32;101961.75;5055708;28;19924;-56
2023/06/06 00:05:07;;;;;;;;;;;;;;;21.11;79.98;101963.41;5055764;28;19935;-54
2023/06/06 00:07:34;;;;;;;;;;;;;;;21.37;78.46;101963.09;5056230;28;19920;-55
2023/06/06 00:10:04;;;;;;;;;;;;;;;21.32;78.52;101970.09;5055863;28;19936;-50
2023/06/06 00:12:32;;;;;;;;;;;;;;;21.42;78.17;101961.31;5056218;28;19924;-54
2023/06/06 00:14:59;;;;;;;;;;;;;;;21.24;79.05;101959.59;5056452;28;19924;-56
2023/06/06 00:17:25;;;;;;;;;;;;;;;21.26;79.12;101967.50;5056574;28;19913;-57
2023/06/06 00:19:52;;;;;;;;;;;;;;;21.32;78.37;101963.81;5055720;28;19943;-56
2023/06/06 00:22:23;;;;;;;;;;;;;;;21.09;79.39;101959.25;5054262;28;19976;-52
2023/06/06 00:24:49;;;;;;;;;;;;;;;21.06;80.17;101955.97;5057931;28;19971;-58
2023/06/06 00:27:14;;;;;;;;;;;;;;;21.30;78.37;101957.78;5056427;28;19917;-53
2023/06/06 00:29:40;;;;;;;;;;;;;;;21.12;79.53;101958.78;5035662;28;19913;-55
2023/06/06 00:32:06;;;;;;;;;;;;;;;21.14;78.58;101967.53;5055697;28;19921;-55
2023/06/06 00:34:32;;;;;;;;;;;;;;;21.06;79.58;101957.84;5055828;28;19972;-56
2023/06/06 00:36:57;;;;;;;;;;;;;;;21.08;79.43;101958.41;5039479;28;19921;-55
2023/06/06 00:39:23;;;;;;;;;;;;;;;21.02;79.86;101957.50;5059789;28;19935;-54
2023/06/06 00:41:49;;;;;;;;;;;;;;;21.03;79.80;101958.31;5041777;28;19912;-56
2023/06/06 00:44:15;;;;;;;;;;;;;;;21.28;78.62;101957.19;5058204;28;19957;-56
2023/06/06 00:46:42;;;;;;;;;;;;;;;21.27;77.39;101961.84;5058179;28;19920;-56
2023/06/06 00:49:10;;;;;;;;;;;;;;;20.92;79.56;101960.81;5055444;28;19989;-56
2023/06/06 00:51:36;;;;;;;;;;;;;;;21.00;79.54;101959.63;5058013;28;19980;-54
2023/06/06 00:54:02;;;;;;;;;;;;;;;21.07;79.04;101962.22;5055844;28;19913;-53
2023/06/06 00:56:29;;;;;;;;;;;;;;;21.01;79.23;101958.56;5037581;28;19952;-54
2023/06/06 00:58:58;;;;;;;;;;;;;;;20.43;83.56;101963.72;5038278;28;19944;-53
2023/06/06 01:01:25;;;;;;;;;;;;;;;20.68;82.42;101968.13;5035582;28;20021;-52
2023/06/06 01:03:52;;;;;;;;;;;;;;;20.72;81.82;101966.56;5038967;28;19911;-57
2023/06/06 01:06:19;;;;;;;;;;;;;;;20.83;80.98;101966.84;5056182;28;19920;-52
2023/06/06 01:08:46;;;;;;;;;;;;;;;21.16;78.83;101971.66;5055392;28;19920;-54
2023/06/06 01:11:16;;;;;;;;;;;;;;;21.42;76.41;101966.75;5054105;28;19924;-53
2023/06/06 01:13:50;;;;;;;;;;;;;;;21.38;76.04;101970.19;5036406;28;19916;-55
2023/06/06 01:16:18;;;;;;;;;;;;;;;21.14;77.93;101962.91;5036660;28;19913;-54
2023/06/06 01:18:46;;;;;;;;;;;;;;;21.23;77.29;101973.41;5054557;28;19936;-56
2023/06/06 01:21:12;;;;;;;;;;;;;;;21.19;77.62;101975.78;5056969;28;20439;-53
2023/06/06 01:23:38;;;;;;;;;;;;;;;21.14;77.99;101970.25;5036457;28;19916;-51
2023/06/06 01:26:07;;;;;;;;;;;;;;;20.94;79.01;101966.00;5040117;28;19920;-52
2023/06/06 01:28:32;;;;;;;;;;;;;;;21.08;78.38;101968.50;5039429;28;19940;-51
2023/06/06 01:30:57;;;;;;;;;;;;;;;21.06;78.47;101963.28;5025354;28;19921;-52
2023/06/06 01:33:35;;;;;;;;;;;;;;;21.03;78.85;101961.03;5039260;28;19920;-51
2023/06/06 01:36:20;;;;;;;;;;;;;;;21.00;79.24;101959.63;5059289;28;19988;-51
2023/06/06 01:38:52;;;;;;;;;;;;;;;20.88;80.49;101959.66;5056913;28;19919;-52
2023/06/06 01:41:19;;;;;;;;;;;;;;;20.96;79.74;101961.16;5055750;28;19924;-56
2023/06/06 01:43:49;;;;;;;;;;;;;;;20.68;80.47;101961.88;5037069;28;19947;-50
2023/06/06 01:46:16;;;;;;;;;;;;;;;20.80;81.14;101961.91;5057382;28;19917;-53
2023/06/06 01:48:44;;;;;;;;;;;;;;;20.66;82.07;101962.09;5055018;28;19916;-55
2023/06/06 01:51:10;;;;;;;;;;;;;;;20.73;81.93;101954.63;5037209;28;20399;-56
2023/06/06 01:53:36;;;;;;;;;;;;;;;20.83;80.79;101961.41;5057128;28;19928;-55
2023/06/06 01:56:02;;;;;;;;;;;;;;;20.73;81.46;101960.06;5037128;28;19912;-52
2023/06/06 01:58:27;;;;;;;;;;;;;;;20.72;81.25;101955.72;5037439;28;19917;-56
2023/06/06 02:00:53;;;;;;;;;;;;;;;20.65;81.69;101955.00;5037674;28;19916;-51
2023/06/06 02:03:18;;;;;;;;;;;;;;;20.65;81.53;101949.56;5043944;28;19913;-54
2023/06/06 02:05:45;;;;;;;;;;;;;;;20.77;81.03;101965.88;5056111;28;19913;-51
2023/06/06 02:08:11;;;;;;;;;;;;;;;20.69;81.28;101958.09;5059924;28;19987;-53
2023/06/06 02:10:36;;;;;;;;;;;;;;;20.58;82.19;101957.03;5022783;28;19920;-55
2023/06/06 02:13:02;;;;;;;;;;;;;;;20.52;82.89;101961.50;5018345;28;19917;-53
2023/06/06 02:15:29;;;;;;;;;;;;;;;20.43;83.95;101963.72;5020123;28;19923;-53
2023/06/06 02:17:55;;;;;;;;;;;;;;;20.44;84.31;101959.97;5020024;28;19913;-55
2023/06/06 02:20:20;;;;;;;;;;;;;;;20.60;82.69;101955.72;5022247;28;19923;-55
2023/06/06 02:22:46;;;;;;;;;;;;;;;20.53;83.18;101954.16;5017261;28;19913;-50
2023/06/06 02:25:13;;;;;;;;;;;;;;;20.70;82.29;101948.88;5024608;28;20273;-52
2023/06/06 02:27:39;;;;;;;;;;;;;;;20.70;81.76;101954.31;5022365;28;19980;-54
2023/06/06 02:30:08;;;;;;;;;;;;;;;20.11;85.90;101953.19;5019402;28;19937;-53
2023/06/06 02:32:33;;;;;;;;;;;;;;;19.61;91.91;101955.13;5020787;28;19940;-54
2023/06/06 02:35:03;;;;;;;;;;;;;;;19.53;93.92;101952.69;5021967;28;19921;-54
2023/06/06 02:37:29;;;;;;;;;;;;;;;19.50;94.75;101945.03;5021678;28;19913;-55
2023/06/06 02:39:55;;;;;;;;;;;;;;;19.41;96.55;101951.81;5024017;28;19937;-55
2023/06/06 02:42:21;;;;;;;;;;;;;;;19.51;96.14;101957.53;5016793;28;20321;-53
2023/06/06 02:44:47;;;;;;;;;;;;;;;19.49;96.74;101948.78;5019830;28;19914;-52
2023/06/06 02:47:13;;;;;;;;;;;;;;;19.43;97.11;101944.28;5019147;28;19918;-55
2023/06/06 02:49:39;;;;;;;;;;;;;;;19.10;99.85;101949.06;5021812;28;19927;-56
2023/06/06 02:52:06;;;;;;;;;;;;;;;19.34;98.74;101947.28;5024228;28;19929;-51
2023/06/06 02:54:32;;;;;;;;;;;;;;;19.66;95.47;101953.59;5021529;28;19914;-54
2023/06/06 02:56:58;;;;;;;;;;;;;;;19.75;94.21;101946.78;5020433;28;19940;-53
2023/06/06 02:59:24;;;;;;;;;;;;;;;19.58;95.82;101946.59;5019467;28;19918;-56
2023/06/06 03:01:49;;;;;;;;;;;;;;;19.73;94.52;101948.91;5016731;28;19914;-56
2023/06/06 03:04:15;;;;;;;;;;;;;;;19.58;95.57;101944.69;5020528;28;19928;-54
2023/06/06 03:06:41;;;;;;;;;;;;;;;19.68;94.76;101951.47;5019439;28;19952;-54
2023/06/06 03:09:07;;;;;;;;;;;;;;;19.71;94.59;101953.72;5020666;28;19914;-53
2023/06/06 03:11:36;;;;;;;;;;;;;;;19.62;95.03;101954.06;5041132;28;19976;-56
2023/06/06 03:14:02;;;;;;;;;;;;;;;19.56;96.46;101954.94;5058308;28;19936;-53
2023/06/06 03:16:30;;;;;;;;;;;;;;;19.59;95.84;101953.69;5038725;28;19943;-55
2023/06/06 03:18:57;;;;;;;;;;;;;;;19.60;95.93;101955.34;5053680;28;19960;-55
2023/06/06 03:21:22;;;;;;;;;;;;;;;19.53;97.32;101958.13;5033792;28;19920;-52
2023/06/06 03:23:50;;;;;;;;;;;;;;;19.57;96.63;101956.59;5036484;28;19928;-55
2023/06/06 03:26:16;;;;;;;;;;;;;;;19.54;97.01;101961.69;5038913;28;19951;-52
2023/06/06 03:28:44;;;;;;;;;;;;;;;19.50;97.90;101966.72;5034661;28;19936;-54
2023/06/06 03:31:12;;;;;;;;;;;;;;;19.14;100.00;101973.81;5036197;28;19913;-54
2023/06/06 03:33:44;;;;;;;;;;;;;;;19.02;100.00;101966.44;5039283;28;19917;-56
2023/06/06 03:36:10;;;;;;;;;;;;;;;19.02;100.00;101965.59;5057505;28;19913;-53
2023/06/06 03:38:37;;;;;;;;;;;;;;;18.90;100.00;101958.19;5040102;28;19921;-55
2023/06/06 03:41:03;;;;;;;;;;;;;;;18.97;100.00;101957.28;5039570;28;19936;-55
2023/06/06 03:43:31;;;;;;;;;;;;;;;18.87;100.00;101971.34;5039955;28;19952;-53
2023/06/06 03:45:57;;;;;;;;;;;;;;;18.88;100.00;101965.72;5041935;28;19917;-54
2023/06/06 03:48:23;;;;;;;;;;;;;;;18.92;100.00;101966.09;5041281;28;20000;-54
2023/06/06 03:50:49;;;;;;;;;;;;;;;18.95;100.00;101965.66;5039147;28;19979;-53
2023/06/06 03:53:14;;;;;;;;;;;;;;;19.02;100.00;101965.59;5058721;28;19924;-54
2023/06/06 03:55:40;;;;;;;;;;;;;;;19.08;100.00;101969.28;5059874;28;19965;-55
2023/06/06 03:58:07;;;;;;;;;;;;;;;19.02;100.00;101963.72;5060735;28;19913;-52
2023/06/06 04:00:33;;;;;;;;;;;;;;;18.87;100.00;101969.47;5062095;28;19913;-51
2023/06/06 04:02:59;;;;;;;;;;;;;;;18.76;100.00;101964.78;5038721;28;19912;-54
2023/06/06 04:05:24;;;;;;;;;;;;;;;18.94;100.00;101969.41;5061823;28;19909;-56
2023/06/06 04:07:49;;;;;;;;;;;;;;;18.92;100.00;101971.53;5061521;28;19913;-56
2023/06/06 04:10:15;;;;;;;;;;;;;;;18.97;100.00;101960.84;5035516;28;19924;-55
2023/06/06 04:12:41;;;;;;;;;;;;;;;19.02;100.00;101968.31;5039583;28;19922;-51
2023/06/06 04:15:09;;;;;;;;;;;;;;;19.06;100.00;101961.41;5037605;28;19953;-55
2023/06/06 04:17:34;;;;;;;;;;;;;;;19.17;100.00;101962.53;5038295;28;19977;-52
2023/06/06 04:20:00;;;;;;;;;;;;;;;19.14;100.00;101968.38;5040515;28;19940;-53
2023/06/06 04:22:27;;;;;;;;;;;;;;;19.00;100.00;101965.84;5034483;28;19924;-53
2023/06/06 04:24:53;;;;;;;;;;;;;;;18.86;100.00;101962.41;5035324;28;19913;-51
2023/06/06 04:27:18;;;;;;;;;;;;;;;19.18;100.00;101967.72;5037736;28;19909;-51
2023/06/06 04:29:44;;;;;;;;;;;;;;;19.13;100.00;101967.56;5040806;28;19913;-53
2023/06/06 04:32:13;;;;;;;;;;;;;;;19.23;100.00;101966.19;5038952;28;19917;-52
2023/06/06 04:34:45;;;;;;;;;;;;;;;19.31;100.00;101969.44;5036079;28;19970;-54
2023/06/06 04:37:14;;;;;;;;;;;;;;;19.20;100.00;101967.50;5037870;28;19925;-55
2023/06/06 04:39:41;;;;;;;;;;;;;;;19.10;100.00;101962.59;5037712;28;19913;-54
2023/06/06 04:42:07;;;;;;;;;;;;;;;19.13;100.00;101964.03;5037197;28;19924;-55
2023/06/06 04:44:33;;;;;;;;;;;;;;;18.65;100.00;101968.25;5035131;28;19913;-54
2023/06/06 04:47:03;;;;;;;;;;;;;;;19.09;100.00;101960.94;5038792;28;19913;-53
2023/06/06 04:49:35;;;;;;;;;;;;;;;19.08;100.00;101966.59;5037017;28;19914;-56
2023/06/06 04:52:12;;;;;;;;;;;;;;;19.02;100.00;101974.56;5033587;28;19917;-52
2023/06/06 04:54:39;;;;;;;;;;;;;;;19.38;100.00;101971.28;5037509;28;19989;-55
2023/06/06 04:57:06;;;;;;;;;;;;;;;19.45;100.00;101964.69;5035401;28;19913;-53
2023/06/06 04:59:32;;;;;;;;;;;;;;;19.45;100.00;101963.88;5035907;28;19944;-53
2023/06/06 05:01:58;;;;;;;;;;;;;;;19.52;100.00;101964.59;5033580;28;19913;-57
2023/06/06 05:04:26;;;;;;;;;;;;;;;19.55;100.00;101961.44;5036265;28;19913;-57
2023/06/06 05:06:51;;;;;;;;;;;;;;;19.19;100.00;101960.44;5037913;28;19921;-56
2023/06/06 05:09:17;;;;;;;;;;;;;;;19.25;100.00;101973.06;5036683;28;19917;-56
2023/06/06 05:11:48;;;;;;;;;;;;;;;19.48;100.00;101966.13;5058080;28;19942;-57
2023/06/06 05:14:13;;;;;;;;;;;;;;;19.68;100.00;101963.13;5058185;28;19924;-57
2023/06/06 05:16:40;;;;;;;;;;;;;;;19.65;100.00;101969.03;5054898;28;19955;-55
2023/06/06 05:19:06;;;;;;;;;;;;;;;19.53;100.00;101970.88;5059000;28;19913;-53
2023/06/06 05:21:33;;;;;;;;;;;;;;;19.72;100.00;101963.53;5055251;28;19917;-53
2023/06/06 05:23:58;;;;;;;;;;;;;;;19.71;100.00;101965.38;5057357;28;19919;-57
2023/06/06 05:26:25;;;;;;;;;;;;;;;20.04;99.61;101971.44;5055122;28;19983;-53
2023/06/06 05:28:50;;;;;;;;;;;;;;;20.16;98.23;101966.03;5054987;28;19946;-56
2023/06/06 05:31:20;;;;;;;;;;;;;;;20.02;99.88;101968.13;5037541;28;19952;-54
2023/06/06 05:33:46;;;;;;;;;;;;;;;20.09;99.52;101959.91;5050496;28;19921;-55
2023/06/06 05:36:11;;;;;;;;;;;;;;;20.04;97.40;101966.00;5057289;28;19913;-55
2023/06/06 05:38:37;;;;;;;;;;;;;;;20.22;96.70;101962.41;5058556;28;19917;-54
2023/06/06 05:41:02;;;;;;;;;;;;;;;20.25;95.38;101967.38;5060284;28;19913;-53
2023/06/06 05:43:31;;;;;;;;;;;;;;;20.45;93.18;101968.94;5058777;28;19913;-53
2023/06/06 05:45:56;;;;;;;;;;;;;;;20.26;93.45;101968.19;5054066;28;19920;-54
2023/06/06 05:48:22;;;;;;;;;;;;;;;20.41;92.40;101968.56;5037536;28;19913;-54
2023/06/06 05:50:48;;;;;;;;;;;;;;;20.30;94.99;101974.84;5039464;28;19913;-53
2023/06/06 05:53:14;;;;;;;;;;;;;;;20.47;94.27;101975.78;5057857;28;19917;-52
2023/06/06 05:55:40;;;;;;;;;;;;;;;20.75;90.55;101971.53;5056192;28;19912;-56
2023/06/06 05:58:05;;;;;;;;;;;;;;;20.83;90.58;101964.94;5056906;28;19928;-55
2023/06/06 06:00:31;;;;;;;;;;;;;;;20.66;91.20;101972.97;5039247;28;19951;-51
2023/06/06 06:02:58;;;;;;;;;;;;;;;20.49;92.31;101964.69;5052369;28;19916;-54
2023/06/06 06:05:27;;;;;;;;;;;;;;;20.59;92.16;101967.63;5053303;28;19936;-53
2023/06/06 06:08:00;;;;;;;;;;;;;;;20.80;92.02;101959.19;5050598;28;19932;-57
2023/06/06 06:10:29;;;;;;;;;;;;;;;20.91;89.28;101961.88;5055770;28;19924;-54
2023/06/06 06:12:55;;;;;;;;;;;;;;;20.85;87.84;101962.00;5052386;28;19913;-53
2023/06/06 06:15:21;;;;;;;;;;;;;;;21.02;87.54;101964.81;5052525;28;19952;-55
2023/06/06 06:17:46;;;;;;;;;;;;;;;20.89;88.21;101972.19;5053216;28;20006;-54
2023/06/06 06:20:13;;;;;;;;;;;;;;;20.92;82.67;101976.28;5051209;28;19976;-55
2023/06/06 06:22:38;;;;;;;;;;;;;;;20.99;85.79;101973.47;5052288;28;19920;-55
2023/06/06 06:25:04;;;;;;;;;;;;;;;20.94;85.39;101976.06;5050975;28;19940;-53
2023/06/06 06:27:33;;;;;;;;;;;;;;;21.15;85.37;101975.47;5056130;28;19913;-54
2023/06/06 06:30:01;;;;;;;;;;;;;;;20.99;86.22;101968.88;5055356;28;20025;-54
2023/06/06 06:32:27;;;;;;;;;;;;;;;20.93;88.69;101980.66;5055479;28;19913;-51
2023/06/06 06:34:53;;;;;;;;;;;;;;;20.91;87.36;101977.38;5055274;28;19920;-56
2023/06/06 06:37:18;;;;;;;;;;;;;;;21.12;87.27;101980.53;5055507;28;19913;-57
2023/06/06 06:39:48;;;;;;;;;;;;;;;21.05;87.27;101983.38;5020144;28;19913;-55
2023/06/06 06:42:14;;;;;;;;;;;;;;;21.33;86.40;101988.06;5055696;28;19913;-55
2023/06/06 06:44:50;;;;;;;;;;;;;;;21.58;82.39;101986.94;5036818;28;19920;-53
2023/06/06 06:47:15;;;;;;;;;;;;;;;21.82;79.66;101981.41;5057737;28;19924;-57
2023/06/06 06:49:41;;;;;;;;;;;;;;;21.68;81.70;101994.50;5053841;28;19920;-55
2023/06/06 06:52:07;;;;;;;;;;;;;;;21.88;79.20;101994.06;5053621;28;20007;-57
2023/06/06 06:54:34;;;;;;;;;;;;;;;21.88;78.85;101991.31;5057372;28;19920;-56
2023/06/06 06:57:00;;;;;;;;;;;;;;;22.01;77.59;101992.91;5053942;28;19944;-52
2023/06/06 06:59:26;;;;;;;;;;;;;;;22.08;74.58;101995.50;5053824;28;19909;-51
2023/06/06 07:01:51;;;;;;;;;;;;;;;21.77;79.06;101989.50;5053263;28;19948;-53
2023/06/06 07:04:17;;;;;;;;;;;;;;;22.22;75.83;101996.00;5055730;28;19917;-53
2023/06/06 07:06:43;;;;;;;;;;;;;;;22.14;74.88;101996.41;5053392;28;19919;-53
2023/06/06 07:09:09;;;;;;;;;;;;;;;22.05;76.51;101990.53;5055451;28;19913;-56
2023/06/06 07:11:35;;;;;;;;;;;;;;;22.15;75.99;101987.19;5058741;28;19913;-55
2023/06/06 07:14:00;;;;;;;;;;;;;;;22.43;75.64;101982.72;5059189;28;19935;-57
2023/06/06 07:16:26;;;;;;;;;;;;;;;22.44;76.44;101982.50;5057015;28;19913;-56
2023/06/06 07:18:52;;;;;;;;;;;;;;;22.33;76.08;101989.69;5057533;28;19917;-52
2023/06/06 07:21:19;;;;;;;;;;;;;;;22.36;77.27;101977.44;5057150;28;19928;-52
2023/06/06 07:23:47;;;;;;;;;;;;;;;22.53;74.33;101988.38;5057961;28;19913;-56
2023/06/06 07:26:17;;;;;;;;;;;;;;;22.84;72.87;101982.56;5057713;28;19934;-50
2023/06/06 07:28:43;;;;;;;;;;;;;;;22.84;72.68;101988.03;5059593;28;19913;-55
2023/06/06 07:31:10;;;;;;;;;;;;;;;22.94;73.50;101987.31;5058988;28;19920;-51
2023/06/06 07:33:36;;;;;;;;;;;;;;;23.04;70.08;101985.56;5057262;28;19916;-55
2023/06/06 07:36:02;;;;;;;;;;;;;;;22.87;71.12;101982.88;5061047;28;19919;-54
2023/06/06 07:38:28;;;;;;;;;;;;;;;23.25;72.28;101990.47;5058596;28;19920;-53
2023/06/06 07:40:53;;;;;;;;;;;;;;;23.20;72.31;101980.31;5056543;28;19912;-54
2023/06/06 07:43:19;;;;;;;;;;;;;;;23.14;70.23;101990.34;5058238;28;19913;-51
2023/06/06 07:45:44;;;;;;;;;;;;;;;23.09;69.11;101982.09;5056615;28;19913;-52
2023/06/06 07:48:10;;;;;;;;;;;;;;;23.04;68.77;101977.38;5056393;28;19924;-50
2023/06/06 07:50:36;;;;;;;;;;;;;;;23.10;69.16;101982.94;5059195;28;19980;-53
2023/06/06 07:53:02;;;;;;;;;;;;;;;23.24;68.90;101981.47;5054993;28;19932;-55
2023/06/06 07:55:28;;;;;;;;;;;;;;;23.58;69.21;101980.50;5054277;28;20398;-55
2023/06/06 07:57:56;;;;;;;;;;;;;;;23.59;69.11;101977.53;5060410;28;19988;-52
2023/06/06 08:00:22;;;;;;;;;;;;;;;23.56;65.35;101972.59;5056335;28;19916;-51
2023/06/06 08:02:47;;;;;;;;;;;;;;;23.63;66.78;101975.09;5056210;28;19920;-53
2023/06/06 08:05:13;;;;;;;;;;;;;;;23.64;65.97;101974.03;5058222;28;19997;-54
2023/06/06 08:07:41;;;;;;;;;;;;;;;23.41;65.51;101975.16;5040342;28;20067;-56
2023/06/06 08:10:07;;;;;;;;;;;;;;;24.02;64.44;101974.19;5059828;28;19916;-54
2023/06/06 08:12:33;;;;;;;;;;;;;;;24.17;66.34;101971.56;5057922;28;19960;-52
2023/06/06 08:14:58;;;;;;;;;;;;;;;24.28;66.10;101972.47;5058370;28;19913;-54
2023/06/06 08:17:24;;;;;;;;;;;;;;;24.55;64.04;101977.03;5057561;28;19920;-52
2023/06/06 08:19:49;;;;;;;;;;;;;;;24.56;62.80;101975.94;5055483;28;20751;-54
2023/06/06 08:22:15;;;;;;;;;;;;;;;24.49;63.69;101980.84;5058711;28;19913;-51
2023/06/06 08:24:41;;;;;;;;;;;;;;;24.59;63.32;101983.66;5056240;28;19916;-54
2023/06/06 08:27:07;;;;;;;;;;;;;;;24.67;64.76;101979.59;5060818;28;19913;-52
2023/06/06 08:29:33;;;;;;;;;;;;;;;24.56;64.06;101972.41;5060369;28;19913;-53
2023/06/06 08:32:01;;;;;;;;;;;;;;;24.72;64.01;101973.31;5056153;28;19928;-56
2023/06/06 08:34:27;;;;;;;;;;;;;;;24.73;61.57;101981.28;5061191;28;19920;-49
2023/06/06 08:36:53;;;;;;;;;;;;;;;24.79;63.42;101982.16;5055916;28;19921;-55
2023/06/06 08:39:19;;;;;;;;;;;;;;;24.73;63.88;101983.19;5055860;28;20011;-53
2023/06/06 08:41:48;;;;;;;;;;;;;;;25.16;62.30;101973.03;5055957;28;19912;-53
2023/06/06 08:44:14;;;;;;;;;;;;;;;25.29;62.05;101971.72;5056408;28;19992;-50
2023/06/06 08:46:40;;;;;;;;;;;;;;;25.40;62.01;101977.25;5055164;28;19932;-57
2023/06/06 08:49:06;;;;;;;;;;;;;;;25.63;59.32;101968.59;5055277;28;19912;-55
2023/06/06 08:51:32;;;;;;;;;;;;;;;25.74;57.83;101980.38;5058445;28;19913;-55
2023/06/06 08:53:59;;;;;;;;;;;;;;;25.90;60.50;101969.44;5057139;28;19935;-56
2023/06/06 08:56:24;;;;;;;;;;;;;;;26.08;60.52;101967.25;5055701;28;19921;-56
2023/06/06 08:58:50;;;;;;;;;;;;;;;26.07;59.63;101971.94;5057810;28;19908;-57
2023/06/06 09:01:17;;;;;;;;;;;;;;;25.89;58.60;101976.00;5055470;28;19995;-52
2023/06/06 09:03:43;;;;;;;;;;;;;;;25.85;60.17;101974.91;5055372;28;19921;-55
2023/06/06 09:06:10;;;;;;;;;;;;;;;26.23;58.93;101969.19;5056769;28;19920;-55
2023/06/06 09:08:36;;;;;;;;;;;;;;;26.57;58.10;101976.88;5057851;28;19947;-56
2023/06/06 09:11:01;;;;;;;;;;;;;;;26.28;57.88;101972.78;5054483;28;19917;-54
2023/06/06 09:13:26;;;;;;;;;;;;;;;26.34;57.87;101965.38;5056835;28;19961;-56
2023/06/06 09:15:53;;;;;;;;;;;;;;;25.74;57.48;101971.34;5053722;28;19971;-56
2023/06/06 09:18:19;;;;;;;;;;;;;;;26.77;57.90;101968.59;5061867;28;19939;-57
2023/06/06 09:20:50;;;;;;;;;;;;;;;27.15;57.37;101972.88;5054019;28;19913;-55
2023/06/06 09:23:16;;;;;;;;;;;;;;;27.17;56.28;101974.25;5055201;28;19956;-56
2023/06/06 09:25:42;;;;;;;;;;;;;;;27.16;55.12;101969.03;5054200;28;19940;-56
2023/06/06 09:28:08;;;;;;;;;;;;;;;27.12;54.84;101970.69;5054406;28;19917;-56
2023/06/06 09:30:35;;;;;;;;;;;;;;;26.92;56.32;101964.16;5054391;28;19916;-54
2023/06/06 09:33:02;;;;;;;;;;;;;;;27.40;55.49;101971.94;5056080;28;19917;-56
2023/06/06 09:35:31;;;;;;;;;;;;;;;27.80;53.35;101969.25;5054089;28;19940;-54
2023/06/06 09:38:05;;;;;;;;;;;;;;;28.18;52.11;101971.44;5059568;28;19913;-52
2023/06/06 09:40:31;;;;;;;;;;;;;;;28.69;52.52;101961.88;5059417;28;19909;-54
2023/06/06 09:42:58;;;;;;;;;;;;;;;28.94;50.54;101957.22;5053923;28;19955;-57
2023/06/06 09:45:23;;;;;;;;;;;;;;;29.56;49.70;101961.94;5060403;28;19944;-52
2023/06/06 09:47:49;;;;;;;;;;;;;;;30.22;47.92;101960.34;5053604;28;19920;-53
2023/06/06 09:50:17;;;;;;;;;;;;;;;30.29;46.14;101953.31;5053515;28;19920;-55
2023/06/06 09:52:42;;;;;;;;;;;;;;;30.62;45.51;101960.75;5054400;28;19943;-56
2023/06/06 09:55:09;;;;;;;;;;;;;;;31.34;44.64;101961.22;5054357;28;19980;-54
2023/06/06 09:57:36;;;;;;;;;;;;;;;31.63;43.12;101962.78;5053462;28;19913;-54
2023/06/06 10:00:06;;;;;;;;;;;;;;;32.30;42.61;101960.31;5057625;28;19913;-53
2023/06/06 10:02:47;;;;;;;;;;;;;;;33.02;41.23;101963.06;5053964;28;19919;-57
2023/06/06 10:05:19;;;;;;;;;;;;;;;33.75;40.35;101967.22;5037917;28;19917;-58
2023/06/06 10:07:45;;;;;;;;;;;;;;;33.89;38.62;101958.72;5054241;28;19989;-54
2023/06/06 10:10:12;;;;;;;;;;;;;;;34.38;38.44;101975.09;5055663;28;19924;-54
2023/06/06 10:12:39;;;;;;;;;;;;;;;34.89;37.87;101968.84;5038374;28;19917;-55
2023/06/06 10:15:05;;;;;;;;;;;;;;;35.36;36.61;101965.09;5053777;28;19939;-56
2023/06/06 10:17:34;;;;;;;;;;;;;;;35.41;36.79;101966.88;5036417;28;19936;-56
2023/06/06 10:20:05;;;;;;;;;;;;;;;36.00;36.04;101973.38;5036680;28;19939;-57
2023/06/06 10:22:35;;;;;;;;;;;;;;;36.34;35.19;101976.94;5036280;28;19935;-54
2023/06/06 10:25:01;;;;;;;;;;;;;;;36.38;34.46;101972.31;5057138;28;19924;-53
2023/06/06 10:27:30;;;;;;;;;;;;;;;35.72;34.64;101965.63;5056502;28;20122;-56
2023/06/06 10:30:06;;;;;;;;;;;;;;;36.72;34.00;101973.03;5054001;28;19935;-57
2023/06/06 10:32:58;;;;;;;;;;;;;;;36.86;33.85;101967.09;5052068;28;19928;-56
2023/06/06 10:35:24;;;;;;;;;;;;;;;37.33;32.75;101964.94;5050166;28;19913;-53
2023/06/06 10:38:09;;;;;;;;;;;;;;;37.99;32.07;101960.03;5056124;28;19913;-56
2023/06/06 10:40:51;;;;;;;;;;;;;;;37.96;32.27;101965.47;5057646;28;19913;-54
2023/06/06 10:43:20;;;;;;;;;;;;;;;38.70;31.96;101972.56;5054369;28;19913;-57
2023/06/06 10:45:49;;;;;;;;;;;;;;;38.78;31.11;101965.16;5052602;28;19913;-56
2023/06/06 10:48:15;;;;;;;;;;;;;;;37.79;31.55;101961.84;5055102;28;19920;-54
2023/06/06 10:50:53;;;;;;;;;;;;;;;38.25;31.82;101966.25;5053084;28;19913;-58
2023/06/06 10:53:19;;;;;;;;;;;;;;;38.73;30.30;101969.03;5055951;28;19986;-56
2023/06/06 10:55:45;;;;;;;;;;;;;;;39.52;29.91;101966.34;5053284;28;19976;-56
2023/06/06 10:58:32;;;;;;;;;;;;;;;39.89;30.04;101959.47;5055702;28;19916;-56
2023/06/06 11:01:02;;;;;;;;;;;;;;;40.36;29.12;101966.69;5055135;28;19936;-57
2023/06/06 11:03:40;;;;;;;;;;;;;;;40.49;28.60;101964.50;5055251;28;19913;-56
2023/06/06 11:06:09;;;;;;;;;;;;;;;39.95;28.63;101963.59;5054420;28;19936;-57
2023/06/06 11:08:36;;;;;;;;;;;;;;;40.30;28.08;101962.59;5053478;28;19909;-59
2023/06/06 11:11:18;;;;;;;;;;;;;;;40.83;28.22;101969.41;5051599;28;19928;-56
2023/06/06 11:13:51;;;;;;;;;;;;;;;41.13;27.71;101968.63;5037680;28;19924;-57
2023/06/06 11:16:26;;;;;;;;;;;;;;;41.38;27.19;101962.53;5051375;28;19913;-58
2023/06/06 11:18:59;;;;;;;;;;;;;;;42.11;26.52;101953.66;5053624;28;19960;-59
2023/06/06 11:21:25;;;;;;;;;;;;;;;41.76;26.14;101957.75;5035546;28;19963;-56
2023/06/06 11:23:50;;;;;;;;;;;;;;;42.30;26.59;101960.25;5035542;28;19913;-57
2023/06/06 11:26:16;;;;;;;;;;;;;;;42.70;26.23;101955.72;5054852;28;19920;-59
2023/06/06 11:28:43;;;;;;;;;;;;;;;42.98;25.85;101957.09;5057178;28;19912;-58
2023/06/06 11:31:09;;;;;;;;;;;;;;;43.61;25.34;101955.28;5055255;28;19972;-57
2023/06/06 11:33:36;;;;;;;;;;;;;;;44.18;24.97;101948.09;5055277;28;19912;-59
2023/06/06 11:36:02;;;;;;;;;;;;;;;43.19;25.07;101949.94;5053299;28;19913;-59
2023/06/06 11:38:27;;;;;;;;;;;;;;;44.06;24.76;101941.66;5056608;28;19913;-58
2023/06/06 11:40:54;;;;;;;;;;;;;;;43.97;24.26;101955.34;5057503;28;19913;-60
2023/06/06 11:43:19;;;;;;;;;;;;;;;44.00;24.25;101946.06;5053856;28;19924;-59
2023/06/06 11:46:00;;;;;;;;;;;;;;;43.72;23.66;101950.50;5055564;28;19936;-57
2023/06/06 11:48:27;;;;;;;;;;;;;;;43.59;24.30;101944.41;5034498;28;19936;-59
2023/06/06 11:50:52;;;;;;;;;;;;;;;44.02;24.07;101945.69;5055448;28;19917;-58
2023/06/06 11:53:31;;;;;;;;;;;;;;;44.55;23.96;101944.06;5058132;28;19917;-58
2023/06/06 11:55:57;;;;;;;;;;;;;;;43.81;24.17;101938.84;5037039;28;19917;-58
2023/06/06 11:58:23;;;;;;;;;;;;;;;44.25;24.45;101931.19;5054712;28;19973;-59
2023/06/06 12:00:49;;;;;;;;;;;;;;;45.07;23.62;101940.63;5059059;28;19943;-57
2023/06/06 12:03:15;;;;;;;;;;;;;;;45.25;23.01;101934.91;5058072;28;19928;-59
2023/06/06 12:05:41;;;;;;;;;;;;;;;46.24;22.47;101944.28;5057770;28;19914;-59
2023/06/06 12:08:07;;;;;;;;;;;;;;;46.34;22.22;101938.94;5058106;28;19920;-59
2023/06/06 12:10:33;;;;;;;;;;;;;;;45.03;22.47;101931.38;5053763;28;19988;-55
2023/06/06 12:13:00;;;;;;;;;;;;;;;45.04;22.93;101933.00;5056013;28;19913;-59
2023/06/06 12:15:43;;;;;;;;;;;;;;;45.55;22.47;101924.22;5055797;28;19932;-59
2023/06/06 12:18:08;;;;;;;;;;;;;;;45.62;22.47;101929.84;5055953;28;19924;-59
2023/06/06 12:20:34;;;;;;;;;;;;;;;45.89;22.39;101931.25;5058336;28;19913;-59
2023/06/06 12:22:59;;;;;;;;;;;;;;;46.01;22.03;101922.28;5062757;28;19951;-59
2023/06/06 12:25:28;;;;;;;;;;;;;;;46.61;21.77;101924.94;5057220;28;19920;-59
2023/06/06 12:28:06;;;;;;;;;;;;;;;47.49;21.05;101928.19;5058838;28;19913;-60
2023/06/06 12:30:32;;;;;;;;;;;;;;;46.43;21.70;101927.94;5065438;28;19924;-59
2023/06/06 12:32:58;;;;;;;;;;;;;;;47.06;21.52;101920.31;5056012;28;19913;-60
2023/06/06 12:35:24;;;;;;;;;;;;;;;47.45;21.12;101923.84;5058234;28;20016;-60